Shawano, WI

7:36 PM CST on December 20, 2014 (GMT -0600)
Shawano | Change Station
CLOSE
Current Station
Airport
Location: Shawano,
Elevation: 814 ft
Nearby Weather Stations

Elev 814 ft 44.79 °N, 88.56 °W | Updated 21 minutes ago

Overcast
Overcast
31 °F
Feels Like 31 °F
N
0
Wind Variable Wind from North

Today
High -- | Low -- °F
--% Chance of Precip.
Yesterday
High -- | Low -- °F
Precip. -- in
7:28 AM 4:15 PM
Waning Crescent, 1% visible
Pressure 30.23 in
Visibility 7.0 miles
Clouds Overcast 2900 ft
Dew Point 26 °F
Humidity 81%
Rainfall 0.00 in
Snow Depth Not available.
UV 0 out of 12
Pollen .10 out of 12
Air Quality Not available.
Flu Activity Not available.
METAR KEZS 210115Z AUTO 00000KT 7SM OVC029 M01/M04 A3023 RMK AO2 T10071036

More Conditions Fewer Conditions

Pressure 30.23 in
Visibility 7.0 miles
Clouds Overcast 2900 ft
Dew Point 26 °F
Humidity 81%
Rainfall 0.00 in
Snow Depth Not available.
UV 0 out of 12
Pollen .10 out of 12
Air Quality Not available.
Flu Activity Not available.
METAR KEZS 210115Z AUTO 00000KT 7SM OVC029 M01/M04 A3023 RMK AO2 T10071036

More Conditions Fewer Conditions

10-Day Weather Forecast

Almanac

Astronomy

Dec. 20, 2014 Rise Set
Actual Time
Civil Twilight
Nautical Twilight
Astronomical Twilight
Moon
Length of Visible Light
Length of Day
Tomorrow will be .
, % of the Moon is Illuminated

Today's Extremes

State Highs State Lows

Community

WunderPhotos

Upload Photos

1,779,339 photos uploaded!

WunderBlogs® & News

Nearby

Air Quality

  Air Quality AQ Index Pollutant
Not available.

Snow Depth

Station Depth Elevation

Earthquake Activity

City Distance Mag. Time & Date
Minimum magnitude displayed is 2.5.

Coastal Water Temperatures

Place Temperature

Nearby Weather Stations